createdAt,value
2023-04-28T00:18:19.941Z,19.8
2023-04-28T00:48:19.897Z,19.8
2023-04-28T01:18:19.631Z,19.8
2023-04-28T01:48:19.925Z,19.7
2023-04-28T02:18:19.920Z,19.6
2023-04-28T02:48:19.899Z,19.6
2023-04-28T03:18:19.902Z,19.6
2023-04-28T03:48:19.920Z,19.6
2023-04-28T04:18:19.948Z,19.6
2023-04-28T04:48:19.937Z,19.6
2023-04-28T05:18:19.904Z,19.5
2023-04-28T05:48:19.884Z,19.6
2023-04-28T06:18:19.905Z,19.7
2023-04-28T06:48:19.925Z,19.8
2023-04-28T07:18:19.894Z,19.8
2023-04-28T07:48:19.900Z,19.9
2023-04-28T08:18:19.904Z,20.0
2023-04-28T08:48:19.925Z,20.0
2023-04-28T09:18:19.909Z,20.0
2023-04-28T09:48:19.914Z,20.0
2023-04-28T10:18:19.986Z,20.0
2023-04-28T10:48:19.877Z,20.0
2023-04-28T11:18:20.049Z,20.0
2023-04-28T11:48:20.044Z,20.1
2023-04-28T12:18:20.009Z,20.0
2023-04-28T12:48:19.888Z,20.0
2023-04-28T13:18:19.934Z,20.1
2023-04-28T13:48:19.612Z,20.1
2023-04-28T14:18:19.898Z,20.3
2023-04-28T14:48:19.873Z,20.3
2023-04-28T15:18:19.861Z,20.3
2023-04-28T15:48:19.882Z,20.3
2023-04-28T16:18:19.875Z,20.2
2023-04-28T16:48:19.888Z,20.1
2023-04-28T17:18:19.892Z,20.1
2023-04-28T17:48:19.845Z,20.1
2023-04-28T18:18:19.873Z,20.1
2023-04-28T18:48:19.561Z,20.1
2023-04-28T19:18:19.876Z,20.0
2023-04-28T19:48:19.864Z,20.0
2023-04-28T20:18:19.868Z,20.0
2023-04-28T20:48:19.865Z,20.0
2023-04-28T21:18:19.864Z,20.0
2023-04-28T21:48:19.849Z,20.0
2023-04-28T22:18:19.845Z,20.0
2023-04-28T22:48:19.844Z,19.9
2023-04-28T23:18:19.821Z,19.8
2023-04-28T23:48:19.817Z,19.8
